createdAt,value
2022-12-12T00:00:24.039Z,87.58
2022-12-12T00:01:24.022Z,87.68
2022-12-12T00:02:24.383Z,87.79
2022-12-12T00:03:24.053Z,87.79
2022-12-12T00:04:23.993Z,87.89
2022-12-12T00:05:23.995Z,87.99
2022-12-12T00:06:23.971Z,88.10
2022-12-12T00:07:23.915Z,88.10
2022-12-12T00:08:24.572Z,88.10
2022-12-12T00:09:23.924Z,88.10
2022-12-12T00:10:23.894Z,87.99
2022-12-12T00:11:23.875Z,87.89
2022-12-12T00:12:23.885Z,87.68
2022-12-12T00:13:23.885Z,87.37
2022-12-12T00:14:23.856Z,86.96
2022-12-12T00:15:23.829Z,86.65
2022-12-12T00:16:23.935Z,86.33
2022-12-12T00:17:23.807Z,86.22
2022-12-12T00:18:23.811Z,86.02
2022-12-12T00:19:23.851Z,85.71
2022-12-12T00:20:23.811Z,85.39
2022-12-12T00:21:23.773Z,85.19
2022-12-12T00:22:23.767Z,85.08
2022-12-12T00:23:23.741Z,84.94
2022-12-12T00:24:23.763Z,84.94
2022-12-12T00:25:23.738Z,84.94
2022-12-12T00:26:23.721Z,84.94
2022-12-12T00:27:23.688Z,84.94
2022-12-12T00:28:23.735Z,85.04
2022-12-12T00:29:23.695Z,85.04
2022-12-12T00:30:23.668Z,85.25
2022-12-12T00:31:23.684Z,85.25
2022-12-12T00:32:23.684Z,85.14
2022-12-12T00:33:23.829Z,85.04
2022-12-12T00:34:23.619Z,85.04
2022-12-12T00:35:23.630Z,85.04
2022-12-12T00:36:23.599Z,85.04
2022-12-12T00:37:23.831Z,85.04
2022-12-12T00:38:23.586Z,85.35
2022-12-12T00:39:23.548Z,85.56
2022-12-12T00:40:23.550Z,85.77
2022-12-12T00:41:23.558Z,85.88
2022-12-12T00:42:23.751Z,85.88
2022-12-12T00:43:23.541Z,85.88
2022-12-12T00:44:23.536Z,85.77
2022-12-12T00:45:23.506Z,85.98
2022-12-12T00:46:23.523Z,86.19
2022-12-12T00:47:23.710Z,86.60
2022-12-12T00:48:23.487Z,86.91
2022-12-12T00:49:23.480Z,87.12
2022-12-12T00:50:23.441Z,87.12
2022-12-12T00:51:23.437Z,87.12
2022-12-12T00:52:23.447Z,87.06
2022-12-12T00:53:23.412Z,87.02
2022-12-12T00:54:23.432Z,86.91
2022-12-12T00:55:23.597Z,86.96
2022-12-12T00:56:23.388Z,86.96
2022-12-12T00:57:23.349Z,87.06
2022-12-12T00:58:23.379Z,87.02
2022-12-12T00:59:23.357Z,86.81
2022-12-12T01:00:23.330Z,86.75
2022-12-12T01:01:23.585Z,86.54
2022-12-12T01:02:27.954Z,86.43
2022-12-12T01:03:24.299Z,86.33
2022-12-12T01:04:23.329Z,86.43
2022-12-12T01:05:23.263Z,86.29
2022-12-12T01:06:23.280Z,86.19
2022-12-12T01:07:23.232Z,85.98
2022-12-12T01:08:23.307Z,85.77
2022-12-12T01:09:23.239Z,85.67
2022-12-12T01:10:23.439Z,85.77
2022-12-12T01:11:23.193Z,85.77
2022-12-12T01:12:23.220Z,85.77
2022-12-12T01:13:23.169Z,85.77
2022-12-12T01:14:23.589Z,85.67
2022-12-12T01:15:23.161Z,85.67
2022-12-12T01:16:23.190Z,85.56
2022-12-12T01:17:23.154Z,85.46
2022-12-12T01:18:23.151Z,85.35
2022-12-12T01:19:23.122Z,85.25
2022-12-12T01:20:23.442Z,85.19
2022-12-12T01:21:23.100Z,85.04
2022-12-12T01:22:23.100Z,84.66
2022-12-12T01:23:23.074Z,84.77
2022-12-12T01:24:23.447Z,84.87
2022-12-12T01:25:23.026Z,84.87
2022-12-12T01:26:23.074Z,84.87
2022-12-12T01:27:23.398Z,84.87
2022-12-12T01:28:23.005Z,84.87
2022-12-12T01:29:22.984Z,84.77
2022-12-12T01:30:23.012Z,84.77
2022-12-12T01:31:23.409Z,84.98
2022-12-12T01:32:22.970Z,85.08
2022-12-12T01:33:23.322Z,85.19
2022-12-12T01:34:22.962Z,85.29
2022-12-12T01:35:22.946Z,85.39
2022-12-12T01:36:22.917Z,85.60
2022-12-12T01:37:22.897Z,85.71
2022-12-12T01:38:22.896Z,85.71
2022-12-12T01:39:22.904Z,85.81
2022-12-12T01:40:22.896Z,85.71
2022-12-12T01:41:22.847Z,85.81
2022-12-12T01:42:22.881Z,85.81
2022-12-12T01:43:22.826Z,85.91
2022-12-12T01:44:22.853Z,86.02
2022-12-12T01:45:23.157Z,86.12
2022-12-12T01:46:22.880Z,86.22
2022-12-12T01:47:22.778Z,86.33
2022-12-12T01:48:22.813Z,86.43
2022-12-12T01:49:22.798Z,86.54
2022-12-12T01:50:22.758Z,86.65
2022-12-12T01:51:22.994Z,86.75
2022-12-12T01:52:22.761Z,86.85
2022-12-12T01:53:22.736Z,86.75
2022-12-12T01:54:22.744Z,86.85
2022-12-12T01:55:22.714Z,86.96
2022-12-12T01:56:22.898Z,87.06
2022-12-12T01:57:22.889Z,87.06
2022-12-12T01:58:22.702Z,86.85
2022-12-12T01:59:22.665Z,87.06
2022-12-12T02:00:22.675Z,87.16
2022-12-12T02:01:22.645Z,87.16
2022-12-12T02:02:23.192Z,87.16
2022-12-12T02:03:22.599Z,87.06
2022-12-12T02:04:22.600Z,87.20
2022-12-12T02:05:22.580Z,87.20
2022-12-12T02:06:22.770Z,86.99
2022-12-12T02:07:22.579Z,87.10
2022-12-12T02:08:22.588Z,86.99
2022-12-12T02:09:22.557Z,87.10
2022-12-12T02:10:22.790Z,86.99
2022-12-12T02:11:22.518Z,86.89
2022-12-12T02:12:22.536Z,86.79
2022-12-12T02:13:22.767Z,86.79
2022-12-12T02:14:22.488Z,86.68
2022-12-12T02:15:22.469Z,86.79
2022-12-12T02:16:22.513Z,86.99
2022-12-12T02:17:22.467Z,87.10
2022-12-12T02:18:22.450Z,87.30
2022-12-12T02:19:22.676Z,87.41
2022-12-12T02:20:22.447Z,87.62
2022-12-12T02:21:22.418Z,87.62
2022-12-12T02:22:22.401Z,87.73
2022-12-12T02:23:22.371Z,87.73
2022-12-12T02:24:25.881Z,87.62
2022-12-12T02:25:22.711Z,87.62
2022-12-12T02:26:22.354Z,87.83
2022-12-12T02:27:22.348Z,87.83
2022-12-12T02:28:22.355Z,87.93
2022-12-12T02:29:22.329Z,88.04
2022-12-12T02:30:22.539Z,88.04
2022-12-12T02:31:22.328Z,87.83
2022-12-12T02:32:22.310Z,87.83
2022-12-12T02:33:22.289Z,87.93
2022-12-12T02:34:22.288Z,87.93
2022-12-12T02:35:22.439Z,88.04
2022-12-12T02:36:22.260Z,88.14
2022-12-12T02:37:22.213Z,88.24
2022-12-12T02:38:22.239Z,88.35
2022-12-12T02:39:22.219Z,88.35
2022-12-12T02:40:22.219Z,88.35
2022-12-12T02:41:22.398Z,88.29
2022-12-12T02:42:22.198Z,88.18
2022-12-12T02:43:22.153Z,88.29
2022-12-12T02:44:22.171Z,88.39
2022-12-12T02:45:22.123Z,88.49
2022-12-12T02:46:22.395Z,88.60
2022-12-12T02:47:22.114Z,88.60
2022-12-12T02:48:22.130Z,88.70
2022-12-12T02:49:22.351Z,88.81
2022-12-12T02:50:22.109Z,88.81
2022-12-12T02:51:22.064Z,88.91
2022-12-12T02:52:22.684Z,89.01
2022-12-12T02:53:22.036Z,89.01
2022-12-12T02:54:22.062Z,89.01
2022-12-12T02:55:22.042Z,89.01
2022-12-12T02:56:22.041Z,88.98
2022-12-12T02:57:22.196Z,88.98
2022-12-12T02:58:21.995Z,88.76
2022-12-12T02:59:21.992Z,88.66
2022-12-12T03:00:21.994Z,88.45
2022-12-12T03:01:21.944Z,88.35
2022-12-12T03:02:22.643Z,88.24
2022-12-12T03:03:22.272Z,88.14
2022-12-12T03:04:21.950Z,88.04
2022-12-12T03:05:21.900Z,87.83
2022-12-12T03:06:21.899Z,87.83
2022-12-12T03:07:22.078Z,87.73
2022-12-12T03:08:21.983Z,87.62
2022-12-12T03:09:21.855Z,87.52
2022-12-12T03:10:21.855Z,87.41
2022-12-12T03:11:21.855Z,87.20
2022-12-12T03:12:22.284Z,87.10
2022-12-12T03:13:21.808Z,86.99
2022-12-12T03:14:21.833Z,86.99
2022-12-12T03:15:22.038Z,86.89
2022-12-12T03:16:21.940Z,86.75
2022-12-12T03:17:21.760Z,86.47
2022-12-12T03:18:21.793Z,86.43
2022-12-12T03:19:21.764Z,86.43
2022-12-12T03:20:21.742Z,86.43
2022-12-12T03:21:21.735Z,86.33
2022-12-12T03:22:21.745Z,86.47
2022-12-12T03:23:21.698Z,86.43
2022-12-12T03:24:21.697Z,86.43
2022-12-12T03:25:21.694Z,86.54
2022-12-12T03:26:21.894Z,86.43
2022-12-12T03:27:21.653Z,86.43
2022-12-12T03:28:21.649Z,86.43
2022-12-12T03:29:21.657Z,86.33
2022-12-12T03:30:21.639Z,86.22
2022-12-12T03:31:21.662Z,86.22
2022-12-12T03:32:22.349Z,86.33
2022-12-12T03:33:21.586Z,86.33
2022-12-12T03:34:21.613Z,86.22
2022-12-12T03:35:21.585Z,86.16
2022-12-12T03:36:21.591Z,86.16
2022-12-12T03:37:21.775Z,86.27
2022-12-12T03:38:21.565Z,86.47
2022-12-12T03:39:21.536Z,86.58
2022-12-12T03:40:21.519Z,86.68
2022-12-12T03:41:21.499Z,86.79
2022-12-12T03:42:21.490Z,86.68
2022-12-12T03:43:21.990Z,86.79
2022-12-12T03:44:21.469Z,86.89
2022-12-12T03:45:21.476Z,86.99
2022-12-12T03:46:21.467Z,86.99
2022-12-12T03:47:21.420Z,86.99
2022-12-12T03:48:21.467Z,86.99
2022-12-12T03:49:21.429Z,86.89
2022-12-12T03:50:21.426Z,86.85
2022-12-12T03:51:21.378Z,86.85
2022-12-12T03:52:21.381Z,86.75
2022-12-12T03:53:21.568Z,86.54
2022-12-12T03:54:21.578Z,86.43
2022-12-12T03:55:21.359Z,86.33
2022-12-12T03:56:21.360Z,86.43
2022-12-12T03:57:21.340Z,86.43
2022-12-12T03:58:21.322Z,86.22
2022-12-12T03:59:26.976Z,85.91
2022-12-12T04:00:22.298Z,85.71
2022-12-12T04:01:21.334Z,85.81
2022-12-12T04:02:21.290Z,85.81
2022-12-12T04:03:21.261Z,85.91
2022-12-12T04:04:21.442Z,86.02
2022-12-12T04:05:21.230Z,86.02
2022-12-12T04:06:21.241Z,85.91
2022-12-12T04:07:21.210Z,85.91
2022-12-12T04:08:21.343Z,86.12
2022-12-12T04:09:21.422Z,86.12
2022-12-12T04:10:21.164Z,86.22
2022-12-12T04:11:21.191Z,86.22
2022-12-12T04:12:21.171Z,85.91
2022-12-12T04:13:21.370Z,85.91
2022-12-12T04:14:21.124Z,86.02
2022-12-12T04:15:21.481Z,86.02
2022-12-12T04:16:21.335Z,86.12
2022-12-12T04:17:21.120Z,86.02
2022-12-12T04:18:21.083Z,85.91
2022-12-12T04:19:21.094Z,85.60
2022-12-12T04:20:21.088Z,85.81
2022-12-12T04:21:21.090Z,86.22
2022-12-12T04:22:25.888Z,86.58
2022-12-12T04:23:22.051Z,86.79
2022-12-12T04:24:21.004Z,86.99
2022-12-12T04:25:21.003Z,87.20
2022-12-12T04:26:21.302Z,87.30
2022-12-12T04:27:20.982Z,87.30
2022-12-12T04:28:20.965Z,87.30
2022-12-12T04:29:20.989Z,87.30
2022-12-12T04:30:20.934Z,87.30
2022-12-12T04:31:21.187Z,87.30
2022-12-12T04:32:20.942Z,87.30
2022-12-12T04:33:20.913Z,87.20
2022-12-12T04:34:20.921Z,87.10
2022-12-12T04:35:21.181Z,87.10
2022-12-12T04:36:20.902Z,87.10
2022-12-12T04:37:20.872Z,87.20
2022-12-12T04:38:20.848Z,87.30
2022-12-12T04:39:20.873Z,87.27
2022-12-12T04:40:21.025Z,87.52
2022-12-12T04:41:20.857Z,87.58
2022-12-12T04:42:20.823Z,87.68
2022-12-12T04:43:20.805Z,87.58
2022-12-12T04:44:20.776Z,87.58
2022-12-12T04:45:20.986Z,87.48
2022-12-12T04:46:21.040Z,87.48
2022-12-12T04:47:20.755Z,87.37
2022-12-12T04:48:20.787Z,87.27
2022-12-12T04:49:20.753Z,87.27
2022-12-12T04:50:20.870Z,87.37
2022-12-12T04:51:20.743Z,87.37
2022-12-12T04:52:21.077Z,87.37
2022-12-12T04:53:20.686Z,87.48
2022-12-12T04:54:20.660Z,87.48
2022-12-12T04:55:20.665Z,87.37
2022-12-12T04:56:20.664Z,87.37
2022-12-12T04:57:20.879Z,87.27
2022-12-12T04:58:20.617Z,87.16
2022-12-12T04:59:20.996Z,87.06
2022-12-12T05:00:20.615Z,86.96
2022-12-12T05:01:20.643Z,86.85
2022-12-12T05:02:20.643Z,86.85
2022-12-12T05:03:20.602Z,86.65
2022-12-12T05:04:20.786Z,86.54
2022-12-12T05:05:20.605Z,86.43
2022-12-12T05:06:20.547Z,86.43
2022-12-12T05:07:20.547Z,86.47
2022-12-12T05:08:20.541Z,86.68
2022-12-12T05:09:20.545Z,86.58
2022-12-12T05:10:20.789Z,86.58
2022-12-12T05:11:20.514Z,86.58
2022-12-12T05:12:20.459Z,86.58
2022-12-12T05:13:20.460Z,86.68
2022-12-12T05:14:20.481Z,86.79
2022-12-12T05:15:20.685Z,86.89
2022-12-12T05:16:20.436Z,86.89
2022-12-12T05:17:20.446Z,86.79
2022-12-12T05:18:20.629Z,86.89
2022-12-12T05:19:20.390Z,86.89
2022-12-12T05:20:20.378Z,87.10
2022-12-12T05:21:20.379Z,87.20
2022-12-12T05:22:20.587Z,87.10
2022-12-12T05:23:20.354Z,87.10
2022-12-12T05:24:20.347Z,86.89
2022-12-12T05:25:20.349Z,86.79
2022-12-12T05:26:20.329Z,86.79
2022-12-12T05:27:20.330Z,86.79
2022-12-12T05:28:20.426Z,86.89
2022-12-12T05:29:20.281Z,86.99
2022-12-12T05:30:20.251Z,87.10
2022-12-12T05:31:20.272Z,87.10
2022-12-12T05:32:20.239Z,86.99
2022-12-12T05:33:20.718Z,86.99
2022-12-12T05:34:20.235Z,86.99
2022-12-12T05:35:20.236Z,87.10
2022-12-12T05:36:20.391Z,87.20
2022-12-12T05:37:20.217Z,87.20
2022-12-12T05:38:20.538Z,87.30
2022-12-12T05:39:20.199Z,87.52
2022-12-12T05:40:20.180Z,87.41
2022-12-12T05:41:20.168Z,87.41
2022-12-12T05:42:20.149Z,87.41
2022-12-12T05:43:20.120Z,87.41
2022-12-12T05:44:20.120Z,87.30
2022-12-12T05:45:20.329Z,87.30
2022-12-12T05:46:20.140Z,87.30
2022-12-12T05:47:20.083Z,87.35
2022-12-12T05:48:24.364Z,87.35
2022-12-12T05:49:20.288Z,87.41
2022-12-12T05:50:20.053Z,87.41
2022-12-12T05:51:20.100Z,87.45
2022-12-12T05:52:20.041Z,87.45
2022-12-12T05:53:20.013Z,87.55
2022-12-12T05:54:19.985Z,87.66
2022-12-12T05:55:19.984Z,87.66
2022-12-12T05:56:19.989Z,87.87
2022-12-12T05:57:20.174Z,87.97
2022-12-12T05:58:20.020Z,87.97
2022-12-12T05:59:19.943Z,88.08
2022-12-12T06:00:19.951Z,88.08
2022-12-12T06:01:19.915Z,88.08
2022-12-12T06:02:19.963Z,88.18
2022-12-12T06:03:20.381Z,88.29
2022-12-12T06:04:19.949Z,88.29
2022-12-12T06:05:19.902Z,88.39
2022-12-12T06:06:19.846Z,88.49
2022-12-12T06:07:19.880Z,88.49
2022-12-12T06:08:24.788Z,88.60
2022-12-12T06:09:21.058Z,88.60
2022-12-12T06:10:20.029Z,88.60
2022-12-12T06:11:19.833Z,88.70
2022-12-12T06:12:19.813Z,88.70
2022-12-12T06:13:19.805Z,88.70
2022-12-12T06:14:19.758Z,88.81
2022-12-12T06:15:20.083Z,88.81
2022-12-12T06:16:19.791Z,88.91
2022-12-12T06:17:19.766Z,88.91
2022-12-12T06:18:19.716Z,88.91
2022-12-12T06:19:19.743Z,88.91
2022-12-12T06:20:19.726Z,89.01
2022-12-12T06:21:20.074Z,89.01
2022-12-12T06:22:19.853Z,89.22
2022-12-12T06:23:19.672Z,89.32
2022-12-12T06:24:19.684Z,89.43
2022-12-12T06:25:19.858Z,89.54
2022-12-12T06:26:19.636Z,89.43
2022-12-12T06:27:19.655Z,89.43
2022-12-12T06:28:19.624Z,89.43
2022-12-12T06:29:19.668Z,89.22
2022-12-12T06:30:19.917Z,89.22
2022-12-12T06:31:19.698Z,89.22
2022-12-12T06:32:19.785Z,89.12
2022-12-12T06:33:19.599Z,89.12
2022-12-12T06:34:19.555Z,89.12
2022-12-12T06:35:19.563Z,89.22
2022-12-12T06:36:19.868Z,89.22
2022-12-12T06:37:19.517Z,89.12
2022-12-12T06:38:19.698Z,89.12
2022-12-12T06:39:19.496Z,89.12
2022-12-12T06:40:19.496Z,89.12
2022-12-12T06:41:19.468Z,89.16
2022-12-12T06:42:19.476Z,89.26
2022-12-12T06:43:20.080Z,89.26
2022-12-12T06:44:19.446Z,89.26
2022-12-12T06:45:19.418Z,89.37
2022-12-12T06:46:19.478Z,89.37
2022-12-12T06:47:19.646Z,89.37
2022-12-12T06:48:19.380Z,89.47
2022-12-12T06:49:19.379Z,89.47
2022-12-12T06:50:23.712Z,89.47
2022-12-12T06:51:19.387Z,89.47
2022-12-12T06:52:19.329Z,89.58
2022-12-12T06:53:19.862Z,89.58
2022-12-12T06:54:19.310Z,89.58
2022-12-12T06:55:19.317Z,89.58
2022-12-12T06:56:19.487Z,89.68
2022-12-12T06:57:19.317Z,89.83
2022-12-12T06:58:19.260Z,89.93
2022-12-12T06:59:19.296Z,89.93
2022-12-12T07:00:19.251Z,89.93
2022-12-12T07:01:19.347Z,90.14
2022-12-12T07:02:23.275Z,90.14
2022-12-12T07:03:20.309Z,90.25
2022-12-12T07:04:19.226Z,90.25
2022-12-12T07:05:19.226Z,90.25
2022-12-12T07:06:19.198Z,90.25
2022-12-12T07:07:19.171Z,90.25
2022-12-12T07:08:19.395Z,90.35
2022-12-12T07:09:19.161Z,90.35
2022-12-12T07:10:21.398Z,90.35
2022-12-12T07:11:19.158Z,90.35
2022-12-12T07:12:19.134Z,90.35
2022-12-12T07:13:19.109Z,90.45
2022-12-12T07:14:19.319Z,90.35
2022-12-12T07:15:19.107Z,90.45
2022-12-12T07:16:19.095Z,90.45
2022-12-12T07:17:19.087Z,90.56
2022-12-12T07:18:19.066Z,90.77
2022-12-12T07:19:19.291Z,90.87
2022-12-12T07:20:19.262Z,90.91
2022-12-12T07:21:19.013Z,91.02
2022-12-12T07:22:19.020Z,91.08
2022-12-12T07:23:19.019Z,91.71
2022-12-12T07:24:19.001Z,92.12
2022-12-12T07:25:18.976Z,92.22
2022-12-12T07:26:19.325Z,92.22
2022-12-12T07:27:21.832Z,92.22
2022-12-12T07:28:18.925Z,92.22
2022-12-12T07:29:18.938Z,92.02
2022-12-12T07:30:18.930Z,91.81
2022-12-12T07:31:19.201Z,91.60
2022-12-12T07:32:18.900Z,91.50
2022-12-12T07:33:18.897Z,91.50
2022-12-12T07:34:19.233Z,91.50
2022-12-12T07:35:18.880Z,91.50
2022-12-12T07:36:18.834Z,91.50
2022-12-12T07:37:18.833Z,91.71
2022-12-12T07:38:18.841Z,91.81
2022-12-12T07:39:20.929Z,91.71
2022-12-12T07:40:18.830Z,91.85
2022-12-12T07:41:18.814Z,91.85
2022-12-12T07:42:18.767Z,91.85
2022-12-12T07:43:18.764Z,91.96
2022-12-12T07:44:18.772Z,91.85
2022-12-12T07:45:18.919Z,91.85
2022-12-12T07:46:18.851Z,91.85
2022-12-12T07:47:18.722Z,92.06
2022-12-12T07:48:18.723Z,92.31
2022-12-12T07:49:18.711Z,92.31
2022-12-12T07:50:18.711Z,92.41
2022-12-12T07:51:18.708Z,92.41
2022-12-12T07:52:18.681Z,92.52
2022-12-12T07:53:19.268Z,92.73
2022-12-12T07:54:18.626Z,92.83
2022-12-12T07:55:18.636Z,92.94
2022-12-12T07:56:18.609Z,92.94
2022-12-12T07:57:18.654Z,93.04
2022-12-12T07:58:18.598Z,93.15
2022-12-12T07:59:18.587Z,93.25
2022-12-12T08:00:18.567Z,93.35
2022-12-12T08:01:18.618Z,93.35
2022-12-12T08:02:18.603Z,93.35
2022-12-12T08:03:18.755Z,93.46
2022-12-12T08:04:18.556Z,93.46
2022-12-12T08:05:18.569Z,93.57
2022-12-12T08:06:18.528Z,93.57
2022-12-12T08:07:18.523Z,93.46
2022-12-12T08:08:18.510Z,93.46
2022-12-12T08:09:18.495Z,93.57
2022-12-12T08:10:18.454Z,93.57
2022-12-12T08:11:18.475Z,93.57
2022-12-12T08:12:18.454Z,93.57
2022-12-12T08:13:18.454Z,93.57
2022-12-12T08:14:18.415Z,93.46
2022-12-12T08:15:18.652Z,93.46
2022-12-12T08:16:18.524Z,93.57
2022-12-12T08:17:18.370Z,93.57
2022-12-12T08:18:18.407Z,93.46
2022-12-12T08:19:18.346Z,93.46
2022-12-12T08:20:18.355Z,93.46
2022-12-12T08:21:24.818Z,93.35
2022-12-12T08:22:19.327Z,93.25
2022-12-12T08:23:18.305Z,93.25
2022-12-12T08:24:18.354Z,93.25
2022-12-12T08:25:18.325Z,93.04
2022-12-12T08:26:18.526Z,93.04
2022-12-12T08:27:18.249Z,93.15
2022-12-12T08:28:18.309Z,93.15
2022-12-12T08:29:18.259Z,93.25
2022-12-12T08:30:18.289Z,93.10
2022-12-12T08:31:18.442Z,93.10
2022-12-12T08:32:18.228Z,93.00
2022-12-12T08:33:18.228Z,93.00
2022-12-12T08:34:18.216Z,93.00
2022-12-12T08:35:18.216Z,93.10
2022-12-12T08:36:18.208Z,93.21
2022-12-12T08:37:18.197Z,93.10
2022-12-12T08:38:18.147Z,93.10
2022-12-12T08:39:18.150Z,92.90
2022-12-12T08:40:18.141Z,92.79
2022-12-12T08:41:18.261Z,92.58
2022-12-12T08:42:18.112Z,92.58
2022-12-12T08:43:18.137Z,92.47
2022-12-12T08:44:18.098Z,92.37
2022-12-12T08:45:18.117Z,92.37
2022-12-12T08:46:18.745Z,92.47
2022-12-12T08:47:18.307Z,92.47
2022-12-12T08:48:18.070Z,92.47
2022-12-12T08:49:18.030Z,92.58
2022-12-12T08:50:18.022Z,92.58
2022-12-12T08:51:17.990Z,92.69
2022-12-12T08:52:17.981Z,92.69
2022-12-12T08:53:18.274Z,92.79
2022-12-12T08:54:17.986Z,92.90
2022-12-12T08:55:17.939Z,93.00
2022-12-12T08:56:17.940Z,93.00
2022-12-12T08:57:22.744Z,93.00
2022-12-12T08:58:19.158Z,93.00
2022-12-12T08:59:17.897Z,92.90
2022-12-12T09:00:17.929Z,92.90
2022-12-12T09:01:17.950Z,92.79
2022-12-12T09:02:17.943Z,92.79
2022-12-12T09:03:17.862Z,92.69
2022-12-12T09:04:18.192Z,92.69
2022-12-12T09:05:17.851Z,92.69
2022-12-12T09:06:17.841Z,92.69
2022-12-12T09:07:17.824Z,92.79
2022-12-12T09:08:17.855Z,92.79
2022-12-12T09:09:17.778Z,92.79
2022-12-12T09:10:17.814Z,92.79
2022-12-12T09:11:17.766Z,92.79
2022-12-12T09:12:17.771Z,92.90
2022-12-12T09:13:17.777Z,92.79
2022-12-12T09:14:18.152Z,92.69
2022-12-12T09:15:17.737Z,92.58
2022-12-12T09:16:17.809Z,92.47
2022-12-12T09:17:17.711Z,92.44
2022-12-12T09:18:17.720Z,92.44
2022-12-12T09:19:17.866Z,92.54
2022-12-12T09:20:17.702Z,92.54
2022-12-12T09:21:17.664Z,92.54
2022-12-12T09:22:17.647Z,92.54
2022-12-12T09:23:17.670Z,92.33
2022-12-12T09:24:17.962Z,91.91
2022-12-12T09:25:17.652Z,91.81
2022-12-12T09:26:17.597Z,91.71
2022-12-12T09:27:17.577Z,91.81
2022-12-12T09:28:17.774Z,91.60
2022-12-12T09:29:17.553Z,91.50
2022-12-12T09:30:17.590Z,91.75
2022-12-12T09:31:17.790Z,91.85
2022-12-12T09:32:22.747Z,91.91
2022-12-12T09:33:18.505Z,92.02
2022-12-12T09:34:17.508Z,92.02
2022-12-12T09:35:17.486Z,91.91
2022-12-12T09:36:17.516Z,91.71
2022-12-12T09:37:17.457Z,91.60
2022-12-12T09:38:17.466Z,91.50
2022-12-12T09:39:17.437Z,91.29
2022-12-12T09:40:17.456Z,91.08
2022-12-12T09:41:17.440Z,91.08
2022-12-12T09:42:17.453Z,91.08
2022-12-12T09:43:17.445Z,91.08
2022-12-12T09:44:17.653Z,91.14
2022-12-12T09:45:17.367Z,91.14
2022-12-12T09:46:17.645Z,90.93
2022-12-12T09:47:17.378Z,90.83
2022-12-12T09:48:17.360Z,90.41
2022-12-12T09:49:17.337Z,90.41
2022-12-12T09:50:17.343Z,90.10
2022-12-12T09:51:17.333Z,90.00
2022-12-12T09:52:17.684Z,89.78
2022-12-12T09:53:17.324Z,89.78
2022-12-12T09:54:17.304Z,89.78
2022-12-12T09:55:17.286Z,90.00
2022-12-12T09:56:17.284Z,90.10
2022-12-12T09:57:17.242Z,90.31
2022-12-12T09:58:17.283Z,90.41
2022-12-12T09:59:17.214Z,90.41
2022-12-12T10:00:17.466Z,90.37
2022-12-12T10:01:17.258Z,90.37
2022-12-12T10:02:17.232Z,90.06
2022-12-12T10:03:17.413Z,89.81
2022-12-12T10:04:17.195Z,89.60
2022-12-12T10:05:17.172Z,89.29
2022-12-12T10:07:18.367Z,88.87
2022-12-12T10:08:17.186Z,88.66
2022-12-12T10:09:17.099Z,88.45
2022-12-12T10:10:17.117Z,88.35
2022-12-12T10:11:17.093Z,88.24
2022-12-12T10:12:17.080Z,88.24
2022-12-12T10:13:17.342Z,88.35
2022-12-12T10:14:17.088Z,88.14
2022-12-12T10:15:17.066Z,88.14
2022-12-12T10:16:17.082Z,88.14
2022-12-12T10:17:17.011Z,88.10
2022-12-12T10:18:17.220Z,88.10
2022-12-12T10:19:17.008Z,87.99
2022-12-12T10:20:17.017Z,87.65
2022-12-12T10:21:16.971Z,87.12
2022-12-12T10:22:16.967Z,86.81
2022-12-12T10:23:16.962Z,86.60
2022-12-12T10:24:17.438Z,86.04
2022-12-12T10:25:16.922Z,85.67
2022-12-12T10:26:16.922Z,85.52
2022-12-12T10:27:16.891Z,85.21
2022-12-12T10:28:17.233Z,84.69
2022-12-12T10:29:17.228Z,84.38
2022-12-12T10:30:16.908Z,84.06
2022-12-12T10:31:24.149Z,84.11
2022-12-12T10:32:16.852Z,84.42
2022-12-12T10:33:16.871Z,84.63
2022-12-12T10:34:16.852Z,84.80
2022-12-12T10:35:22.584Z,84.90
2022-12-12T10:36:17.828Z,84.75
2022-12-12T10:37:17.138Z,84.34
2022-12-12T10:38:16.812Z,83.72
2022-12-12T10:39:16.758Z,83.61
2022-12-12T10:40:17.123Z,83.26
2022-12-12T10:41:16.768Z,82.43
2022-12-12T10:42:16.751Z,81.81
2022-12-12T10:43:16.762Z,81.91
2022-12-12T10:44:16.707Z,81.91
2022-12-12T10:45:16.921Z,82.12
2022-12-12T10:46:16.825Z,81.91
2022-12-12T10:47:16.665Z,81.77
2022-12-12T10:48:16.681Z,81.67
2022-12-12T10:49:16.635Z,81.35
2022-12-12T10:50:16.662Z,81.11
2022-12-12T10:51:16.815Z,80.90
2022-12-12T10:52:16.643Z,80.59
2022-12-12T10:53:16.639Z,80.59
2022-12-12T10:54:16.622Z,80.35
2022-12-12T10:55:16.580Z,80.04
2022-12-12T10:56:16.592Z,79.72
2022-12-12T10:57:20.280Z,79.41
2022-12-12T10:58:16.747Z,79.17
2022-12-12T10:59:16.526Z,78.96
2022-12-12T11:00:16.550Z,78.86
2022-12-12T11:01:16.521Z,78.86
2022-12-12T11:02:16.603Z,78.65
2022-12-12T11:03:16.726Z,78.75
2022-12-12T11:04:16.484Z,78.65
2022-12-12T11:05:16.669Z,78.55
2022-12-12T11:06:16.484Z,78.55
2022-12-12T11:07:16.456Z,78.44
2022-12-12T11:08:16.689Z,78.13
2022-12-12T11:09:16.435Z,78.23
2022-12-12T11:10:16.407Z,78.03
2022-12-12T11:11:16.416Z,77.99
2022-12-12T11:12:16.414Z,77.68
2022-12-12T11:13:16.397Z,77.68
2022-12-12T11:14:16.367Z,77.68
2022-12-12T11:15:16.379Z,77.68
2022-12-12T11:16:16.375Z,77.58
2022-12-12T11:17:16.318Z,77.37
2022-12-12T11:18:16.349Z,77.16
2022-12-12T11:19:16.323Z,76.95
2022-12-12T11:20:16.300Z,76.75
2022-12-12T11:21:16.301Z,76.95
2022-12-12T11:22:16.269Z,76.85
2022-12-12T11:23:18.326Z,77.16
2022-12-12T11:24:16.719Z,76.95
2022-12-12T11:25:16.246Z,76.54
2022-12-12T11:26:16.437Z,76.75
2022-12-12T11:27:16.227Z,76.95
2022-12-12T11:28:16.246Z,77.06
2022-12-12T11:29:16.206Z,77.06
2022-12-12T11:30:16.233Z,76.75
2022-12-12T11:31:16.203Z,76.33
2022-12-12T11:32:16.531Z,76.64
2022-12-12T11:33:16.407Z,76.75
2022-12-12T11:34:16.142Z,77.06
2022-12-12T11:35:16.177Z,76.64
2022-12-12T11:36:16.119Z,76.75
2022-12-12T11:37:16.118Z,76.50
2022-12-12T11:38:16.116Z,76.40
2022-12-12T11:39:16.445Z,76.40
2022-12-12T11:40:16.134Z,76.19
2022-12-12T11:41:16.251Z,75.98
2022-12-12T11:42:16.043Z,75.67
2022-12-12T11:43:16.031Z,75.57
2022-12-12T11:44:20.117Z,75.43
2022-12-12T11:45:16.188Z,75.12
2022-12-12T11:46:16.410Z,75.12
2022-12-12T11:47:15.972Z,75.02
2022-12-12T11:48:16.003Z,75.02
2022-12-12T11:49:16.302Z,75.02
2022-12-12T11:50:16.053Z,75.22
2022-12-12T11:51:15.950Z,75.22
2022-12-12T11:52:15.958Z,75.12
2022-12-12T11:53:15.942Z,74.91
2022-12-12T11:54:16.514Z,74.91
2022-12-12T11:55:16.249Z,74.91
2022-12-12T11:56:15.883Z,74.71
2022-12-12T11:57:15.863Z,74.50
2022-12-12T11:58:15.862Z,74.71
2022-12-12T11:59:16.154Z,74.29
2022-12-12T12:00:15.968Z,74.19
2022-12-12T12:01:15.840Z,74.40
2022-12-12T12:02:15.840Z,74.40
2022-12-12T12:03:15.881Z,74.40
2022-12-12T12:04:15.815Z,74.15
2022-12-12T12:05:16.301Z,74.05
2022-12-12T12:06:15.792Z,73.94
2022-12-12T12:07:15.745Z,73.57
2022-12-12T12:08:15.830Z,73.57
2022-12-12T12:09:15.728Z,73.88
2022-12-12T12:10:19.668Z,74.08
2022-12-12T12:11:16.897Z,73.77
2022-12-12T12:12:15.737Z,73.67
2022-12-12T12:13:16.006Z,73.36
2022-12-12T12:14:15.705Z,73.67
2022-12-12T12:15:15.943Z,74.08
2022-12-12T12:16:15.679Z,74.29
2022-12-12T12:17:15.666Z,73.77
2022-12-12T12:18:15.634Z,74.22
2022-12-12T12:19:15.827Z,73.91
2022-12-12T12:20:15.608Z,74.26
2022-12-12T12:21:15.589Z,74.77
2022-12-12T12:22:15.614Z,75.09
2022-12-12T12:23:15.614Z,75.43
2022-12-12T12:24:15.557Z,75.95
2022-12-12T12:25:16.278Z,76.37
2022-12-12T12:26:15.539Z,76.37
2022-12-12T12:27:15.763Z,76.19
2022-12-12T12:28:15.538Z,76.40
2022-12-12T12:29:15.517Z,76.61
2022-12-12T12:30:15.488Z,76.81
2022-12-12T12:31:15.564Z,77.02
2022-12-12T12:32:15.498Z,76.95
2022-12-12T12:33:15.537Z,77.06
2022-12-12T12:34:15.438Z,77.23
2022-12-12T12:35:15.625Z,76.61
2022-12-12T12:36:20.926Z,76.54
2022-12-12T12:37:16.444Z,76.95
2022-12-12T12:38:15.640Z,77.16
2022-12-12T12:39:15.398Z,77.26
2022-12-12T12:40:15.396Z,77.06
2022-12-12T12:41:15.369Z,77.09
2022-12-12T12:42:15.376Z,77.20
2022-12-12T12:43:15.600Z,77.55
2022-12-12T12:44:15.346Z,77.96
2022-12-12T12:45:15.714Z,78.17
2022-12-12T12:46:15.324Z,78.27
2022-12-12T12:47:15.520Z,78.58
2022-12-12T12:48:15.280Z,78.79
2022-12-12T12:49:15.298Z,78.48
2022-12-12T12:50:15.599Z,78.17
2022-12-12T12:51:15.253Z,78.03
2022-12-12T12:52:15.233Z,77.86
2022-12-12T12:53:15.583Z,77.86